sensor_id;sensor_type;location;lat;lon;timestamp;P1;durP1;ratioP1;P2;durP2;ratioP2
60730;SDS011;46580;52.114;11.674;2023-05-07T00:00:01;11.50;;;9.00;;
60730;SDS011;46580;52.114;11.674;2023-05-07T00:02:27;12.23;;;8.20;;
60730;SDS011;46580;52.114;11.674;2023-05-07T00:04:53;14.27;;;9.17;;
60730;SDS011;46580;52.114;11.674;2023-05-07T00:07:18;13.30;;;8.73;;
60730;SDS011;46580;52.114;11.674;2023-05-07T00:09:43;11.10;;;8.37;;
60730;SDS011;46580;52.114;11.674;2023-05-07T00:12:09;12.87;;;8.57;;
60730;SDS011;46580;52.114;11.674;2023-05-07T00:14:34;15.93;;;8.50;;
60730;SDS011;46580;52.114;11.674;2023-05-07T00:17:00;13.07;;;8.87;;
60730;SDS011;46580;52.114;11.674;2023-05-07T00:19:25;9.97;;;7.93;;
60730;SDS011;46580;52.114;11.674;2023-05-07T00:21:51;10.73;;;8.30;;
60730;SDS011;46580;52.114;11.674;2023-05-07T00:24:18;9.80;;;7.20;;
60730;SDS011;46580;52.114;11.674;2023-05-07T00:26:43;13.93;;;7.73;;
60730;SDS011;46580;52.114;11.674;2023-05-07T00:29:09;8.80;;;7.17;;
60730;SDS011;46580;52.114;11.674;2023-05-07T00:31:34;10.77;;;7.27;;
60730;SDS011;46580;52.114;11.674;2023-05-07T00:34:00;9.50;;;6.87;;
60730;SDS011;46580;52.114;11.674;2023-05-07T00:36:25;9.33;;;6.93;;
60730;SDS011;46580;52.114;11.674;2023-05-07T00:38:51;8.20;;;6.27;;
60730;SDS011;46580;52.114;11.674;2023-05-07T00:41:17;8.90;;;6.17;;
60730;SDS011;46580;52.114;11.674;2023-05-07T00:43:42;7.33;;;5.77;;
60730;SDS011;46580;52.114;11.674;2023-05-07T00:46:07;7.67;;;6.00;;
60730;SDS011;46580;52.114;11.674;2023-05-07T00:48:33;8.00;;;6.37;;
60730;SDS011;46580;52.114;11.674;2023-05-07T00:50:58;8.83;;;6.30;;
60730;SDS011;46580;52.114;11.674;2023-05-07T00:53:23;7.77;;;6.73;;
60730;SDS011;46580;52.114;11.674;2023-05-07T00:55:49;7.57;;;6.70;;
60730;SDS011;46580;52.114;11.674;2023-05-07T00:58:15;8.50;;;6.83;;
60730;SDS011;46580;52.114;11.674;2023-05-07T01:00:40;9.33;;;7.10;;
60730;SDS011;46580;52.114;11.674;2023-05-07T01:03:06;7.80;;;5.60;;
60730;SDS011;46580;52.114;11.674;2023-05-07T01:05:31;10.87;;;6.73;;
60730;SDS011;46580;52.114;11.674;2023-05-07T01:07:57;10.13;;;6.03;;
60730;SDS011;46580;52.114;11.674;2023-05-07T01:10:23;8.70;;;6.97;;
60730;SDS011;46580;52.114;11.674;2023-05-07T01:12:49;8.10;;;6.47;;
60730;SDS011;46580;52.114;11.674;2023-05-07T01:15:15;7.33;;;6.37;;
60730;SDS011;46580;52.114;11.674;2023-05-07T01:17:41;7.93;;;6.07;;
60730;SDS011;46580;52.114;11.674;2023-05-07T01:20:07;9.87;;;6.37;;
60730;SDS011;46580;52.114;11.674;2023-05-07T01:22:35;9.40;;;6.17;;
60730;SDS011;46580;52.114;11.674;2023-05-07T01:25:03;8.87;;;6.93;;
60730;SDS011;46580;52.114;11.674;2023-05-07T01:27:29;8.73;;;7.13;;
60730;SDS011;46580;52.114;11.674;2023-05-07T01:29:54;11.20;;;7.20;;
60730;SDS011;46580;52.114;11.674;2023-05-07T01:32:21;8.60;;;7.67;;
60730;SDS011;46580;52.114;11.674;2023-05-07T01:34:57;10.10;;;7.50;;
60730;SDS011;46580;52.114;11.674;2023-05-07T01:37:24;9.23;;;6.57;;
60730;SDS011;46580;52.114;11.674;2023-05-07T01:39:50;8.70;;;7.10;;
60730;SDS011;46580;52.114;11.674;2023-05-07T01:42:17;9.67;;;7.17;;
60730;SDS011;46580;52.114;11.674;2023-05-07T01:44:42;7.93;;;6.67;;
60730;SDS011;46580;52.114;11.674;2023-05-07T01:47:07;9.67;;;6.67;;
60730;SDS011;46580;52.114;11.674;2023-05-07T01:49:34;9.40;;;7.30;;
60730;SDS011;46580;52.114;11.674;2023-05-07T01:51:59;10.83;;;7.07;;
60730;SDS011;46580;52.114;11.674;2023-05-07T01:54:26;10.47;;;7.23;;
60730;SDS011;46580;52.114;11.674;2023-05-07T01:56:53;10.00;;;6.50;;
60730;SDS011;46580;52.114;11.674;2023-05-07T01:59:19;10.43;;;7.77;;
60730;SDS011;46580;52.114;11.674;2023-05-07T02:01:44;10.43;;;7.77;;
60730;SDS011;46580;52.114;11.674;2023-05-07T02:04:10;9.40;;;7.23;;
60730;SDS011;46580;52.114;11.674;2023-05-07T02:06:35;10.57;;;7.60;;
60730;SDS011;46580;52.114;11.674;2023-05-07T02:09:00;9.63;;;7.30;;
60730;SDS011;46580;52.114;11.674;2023-05-07T02:11:26;8.63;;;6.87;;
60730;SDS011;46580;52.114;11.674;2023-05-07T02:13:51;9.90;;;7.13;;
60730;SDS011;46580;52.114;11.674;2023-05-07T02:16:17;10.40;;;7.37;;
60730;SDS011;46580;52.114;11.674;2023-05-07T02:18:44;8.27;;;6.87;;
60730;SDS011;46580;52.114;11.674;2023-05-07T02:21:09;9.67;;;7.47;;
60730;SDS011;46580;52.114;11.674;2023-05-07T02:23:35;10.23;;;7.57;;
60730;SDS011;46580;52.114;11.674;2023-05-07T02:26:00;11.10;;;8.30;;
60730;SDS011;46580;52.114;11.674;2023-05-07T02:28:25;12.10;;;8.20;;
60730;SDS011;46580;52.114;11.674;2023-05-07T02:30:50;9.87;;;7.23;;
60730;SDS011;46580;52.114;11.674;2023-05-07T02:33:17;9.03;;;7.13;;
60730;SDS011;46580;52.114;11.674;2023-05-07T02:35:42;10.73;;;7.23;;
60730;SDS011;46580;52.114;11.674;2023-05-07T02:38:08;9.37;;;7.20;;
60730;SDS011;46580;52.114;11.674;2023-05-07T02:40:35;8.67;;;7.10;;
60730;SDS011;46580;52.114;11.674;2023-05-07T02:43:03;9.13;;;7.30;;
60730;SDS011;46580;52.114;11.674;2023-05-07T02:45:29;10.23;;;8.20;;
60730;SDS011;46580;52.114;11.674;2023-05-07T02:47:54;10.63;;;7.20;;
60730;SDS011;46580;52.114;11.674;2023-05-07T02:50:20;9.87;;;7.17;;
60730;SDS011;46580;52.114;11.674;2023-05-07T02:52:45;9.37;;;7.63;;
60730;SDS011;46580;52.114;11.674;2023-05-07T02:55:11;10.80;;;7.50;;
60730;SDS011;46580;52.114;11.674;2023-05-07T02:57:37;10.60;;;7.40;;
60730;SDS011;46580;52.114;11.674;2023-05-07T03:00:12;12.10;;;7.63;;
60730;SDS011;46580;52.114;11.674;2023-05-07T03:02:41;9.83;;;7.20;;
60730;SDS011;46580;52.114;11.674;2023-05-07T03:05:07;11.47;;;8.00;;
60730;SDS011;46580;52.114;11.674;2023-05-07T03:07:33;10.57;;;7.67;;
60730;SDS011;46580;52.114;11.674;2023-05-07T03:09:59;8.93;;;7.13;;
60730;SDS011;46580;52.114;11.674;2023-05-07T03:12:28;11.13;;;8.00;;
60730;SDS011;46580;52.114;11.674;2023-05-07T03:14:53;9.93;;;7.70;;
60730;SDS011;46580;52.114;11.674;2023-05-07T03:17:19;11.80;;;7.13;;
60730;SDS011;46580;52.114;11.674;2023-05-07T03:19:45;8.97;;;6.60;;
60730;SDS011;46580;52.114;11.674;2023-05-07T03:22:10;8.50;;;6.90;;
60730;SDS011;46580;52.114;11.674;2023-05-07T03:24:36;10.63;;;6.97;;
60730;SDS011;46580;52.114;11.674;2023-05-07T03:27:01;10.67;;;7.60;;
60730;SDS011;46580;52.114;11.674;2023-05-07T03:29:26;8.67;;;6.53;;
60730;SDS011;46580;52.114;11.674;2023-05-07T03:31:52;10.63;;;7.90;;
60730;SDS011;46580;52.114;11.674;2023-05-07T03:34:17;10.67;;;7.37;;
60730;SDS011;46580;52.114;11.674;2023-05-07T03:36:47;11.23;;;8.10;;
60730;SDS011;46580;52.114;11.674;2023-05-07T03:39:15;9.70;;;7.00;;
60730;SDS011;46580;52.114;11.674;2023-05-07T03:41:40;9.27;;;7.37;;
60730;SDS011;46580;52.114;11.674;2023-05-07T03:44:05;10.73;;;7.00;;
60730;SDS011;46580;52.114;11.674;2023-05-07T03:46:31;9.87;;;7.03;;
60730;SDS011;46580;52.114;11.674;2023-05-07T03:48:58;9.63;;;6.70;;
60730;SDS011;46580;52.114;11.674;2023-05-07T03:51:23;9.63;;;7.67;;
60730;SDS011;46580;52.114;11.674;2023-05-07T03:53:55;13.90;;;8.17;;
60730;SDS011;46580;52.114;11.674;2023-05-07T03:56:23;13.20;;;8.13;;
60730;SDS011;46580;52.114;11.674;2023-05-07T03:58:51;13.97;;;8.40;;
60730;SDS011;46580;52.114;11.674;2023-05-07T04:01:17;10.87;;;7.77;;
60730;SDS011;46580;52.114;11.674;2023-05-07T04:03:42;11.63;;;8.93;;
60730;SDS011;46580;52.114;11.674;2023-05-07T04:06:07;11.17;;;8.50;;
60730;SDS011;46580;52.114;11.674;2023-05-07T04:08:33;12.13;;;7.87;;
60730;SDS011;46580;52.114;11.674;2023-05-07T04:10:58;8.40;;;6.57;;
60730;SDS011;46580;52.114;11.674;2023-05-07T04:13:24;11.80;;;8.27;;
60730;SDS011;46580;52.114;11.674;2023-05-07T04:15:54;11.80;;;8.00;;
60730;SDS011;46580;52.114;11.674;2023-05-07T04:18:20;11.23;;;7.70;;
60730;SDS011;46580;52.114;11.674;2023-05-07T04:20:46;10.03;;;7.40;;
60730;SDS011;46580;52.114;11.674;2023-05-07T04:23:15;12.70;;;8.37;;
60730;SDS011;46580;52.114;11.674;2023-05-07T04:25:40;10.47;;;8.00;;
60730;SDS011;46580;52.114;11.674;2023-05-07T04:28:06;12.03;;;8.60;;
60730;SDS011;46580;52.114;11.674;2023-05-07T04:30:31;9.63;;;7.40;;
60730;SDS011;46580;52.114;11.674;2023-05-07T04:32:57;10.90;;;7.73;;
60730;SDS011;46580;52.114;11.674;2023-05-07T04:35:22;15.93;;;8.40;;
60730;SDS011;46580;52.114;11.674;2023-05-07T04:37:47;9.83;;;7.80;;
60730;SDS011;46580;52.114;11.674;2023-05-07T04:40:13;11.60;;;7.30;;
60730;SDS011;46580;52.114;11.674;2023-05-07T04:42:38;11.73;;;7.80;;
60730;SDS011;46580;52.114;11.674;2023-05-07T04:45:04;12.27;;;7.10;;
60730;SDS011;46580;52.114;11.674;2023-05-07T04:47:30;11.77;;;7.47;;
60730;SDS011;46580;52.114;11.674;2023-05-07T04:49:55;11.60;;;7.30;;
60730;SDS011;46580;52.114;11.674;2023-05-07T04:52:20;11.23;;;7.87;;
60730;SDS011;46580;52.114;11.674;2023-05-07T04:54:46;11.97;;;6.83;;
60730;SDS011;46580;52.114;11.674;2023-05-07T04:57:11;9.37;;;7.67;;
60730;SDS011;46580;52.114;11.674;2023-05-07T04:59:36;10.47;;;7.07;;
60730;SDS011;46580;52.114;11.674;2023-05-07T05:02:02;12.07;;;7.80;;
60730;SDS011;46580;52.114;11.674;2023-05-07T05:04:29;9.43;;;5.80;;
60730;SDS011;46580;52.114;11.674;2023-05-07T05:06:54;8.20;;;5.50;;
60730;SDS011;46580;52.114;11.674;2023-05-07T05:09:20;6.73;;;5.70;;
60730;SDS011;46580;52.114;11.674;2023-05-07T05:11:45;5.87;;;3.57;;
60730;SDS011;46580;52.114;11.674;2023-05-07T05:14:10;6.57;;;5.13;;
60730;SDS011;46580;52.114;11.674;2023-05-07T05:16:36;5.63;;;4.47;;
60730;SDS011;46580;52.114;11.674;2023-05-07T05:19:01;7.00;;;5.33;;
60730;SDS011;46580;52.114;11.674;2023-05-07T05:21:27;5.93;;;4.73;;
60730;SDS011;46580;52.114;11.674;2023-05-07T05:23:52;6.90;;;4.20;;
60730;SDS011;46580;52.114;11.674;2023-05-07T05:26:18;7.60;;;5.27;;
60730;SDS011;46580;52.114;11.674;2023-05-07T05:28:43;5.77;;;4.30;;
60730;SDS011;46580;52.114;11.674;2023-05-07T05:31:09;5.67;;;4.43;;
60730;SDS011;46580;52.114;11.674;2023-05-07T05:33:35;5.87;;;4.60;;
60730;SDS011;46580;52.114;11.674;2023-05-07T05:36:00;5.53;;;4.33;;
60730;SDS011;46580;52.114;11.674;2023-05-07T05:38:26;7.87;;;5.43;;
60730;SDS011;46580;52.114;11.674;2023-05-07T05:40:51;6.93;;;4.80;;
60730;SDS011;46580;52.114;11.674;2023-05-07T05:43:16;8.43;;;5.33;;
60730;SDS011;46580;52.114;11.674;2023-05-07T05:45:42;6.83;;;4.93;;
60730;SDS011;46580;52.114;11.674;2023-05-07T05:48:07;5.50;;;4.23;;
60730;SDS011;46580;52.114;11.674;2023-05-07T05:50:33;8.90;;;5.00;;
60730;SDS011;46580;52.114;11.674;2023-05-07T05:53:00;7.20;;;5.47;;
60730;SDS011;46580;52.114;11.674;2023-05-07T05:55:26;8.93;;;5.47;;
60730;SDS011;46580;52.114;11.674;2023-05-07T05:57:51;6.27;;;4.70;;
60730;SDS011;46580;52.114;11.674;2023-05-07T06:00:17;5.37;;;4.77;;
60730;SDS011;46580;52.114;11.674;2023-05-07T06:02:42;6.63;;;5.10;;
60730;SDS011;46580;52.114;11.674;2023-05-07T06:05:08;6.33;;;4.87;;
60730;SDS011;46580;52.114;11.674;2023-05-07T06:07:34;5.97;;;4.57;;
60730;SDS011;46580;52.114;11.674;2023-05-07T06:09:59;6.27;;;4.47;;
60730;SDS011;46580;52.114;11.674;2023-05-07T06:12:27;6.00;;;5.20;;
60730;SDS011;46580;52.114;11.674;2023-05-07T06:14:52;6.40;;;4.60;;
60730;SDS011;46580;52.114;11.674;2023-05-07T06:17:17;6.10;;;5.13;;
60730;SDS011;46580;52.114;11.674;2023-05-07T06:19:43;4.40;;;4.00;;
60730;SDS011;46580;52.114;11.674;2023-05-07T06:22:08;4.63;;;4.20;;
60730;SDS011;46580;52.114;11.674;2023-05-07T06:24:33;5.03;;;4.10;;
60730;SDS011;46580;52.114;11.674;2023-05-07T06:26:59;5.73;;;4.83;;
60730;SDS011;46580;52.114;11.674;2023-05-07T06:29:24;6.53;;;5.17;;
60730;SDS011;46580;52.114;11.674;2023-05-07T06:31:51;5.83;;;4.63;;
60730;SDS011;46580;52.114;11.674;2023-05-07T06:34:17;5.83;;;4.70;;
60730;SDS011;46580;52.114;11.674;2023-05-07T06:36:43;7.83;;;5.27;;
60730;SDS011;46580;52.114;11.674;2023-05-07T06:39:08;7.67;;;5.90;;
60730;SDS011;46580;52.114;11.674;2023-05-07T06:41:34;7.70;;;6.20;;
60730;SDS011;46580;52.114;11.674;2023-05-07T06:44:00;6.70;;;6.07;;
60730;SDS011;46580;52.114;11.674;2023-05-07T06:46:27;8.70;;;6.17;;
60730;SDS011;46580;52.114;11.674;2023-05-07T06:48:52;8.40;;;6.53;;
60730;SDS011;46580;52.114;11.674;2023-05-07T06:51:17;8.13;;;6.23;;
60730;SDS011;46580;52.114;11.674;2023-05-07T06:53:43;12.40;;;6.83;;
60730;SDS011;46580;52.114;11.674;2023-05-07T06:56:08;7.53;;;5.93;;
60730;SDS011;46580;52.114;11.674;2023-05-07T06:58:33;7.70;;;5.70;;
60730;SDS011;46580;52.114;11.674;2023-05-07T07:00:59;9.03;;;7.03;;
60730;SDS011;46580;52.114;11.674;2023-05-07T07:03:24;8.10;;;6.47;;
60730;SDS011;46580;52.114;11.674;2023-05-07T07:05:53;7.77;;;6.23;;
60730;SDS011;46580;52.114;11.674;2023-05-07T07:08:20;6.50;;;4.97;;
60730;SDS011;46580;52.114;11.674;2023-05-07T07:10:46;7.87;;;5.93;;
60730;SDS011;46580;52.114;11.674;2023-05-07T07:13:12;7.90;;;6.57;;
60730;SDS011;46580;52.114;11.674;2023-05-07T07:15:38;7.37;;;6.33;;
60730;SDS011;46580;52.114;11.674;2023-05-07T07:18:04;7.17;;;5.70;;
60730;SDS011;46580;52.114;11.674;2023-05-07T07:20:30;7.47;;;6.17;;
60730;SDS011;46580;52.114;11.674;2023-05-07T07:22:55;6.93;;;5.80;;
60730;SDS011;46580;52.114;11.674;2023-05-07T07:25:20;7.70;;;5.40;;
60730;SDS011;46580;52.114;11.674;2023-05-07T07:27:46;9.03;;;6.80;;
60730;SDS011;46580;52.114;11.674;2023-05-07T07:30:11;7.60;;;5.67;;
60730;SDS011;46580;52.114;11.674;2023-05-07T07:32:37;8.73;;;6.47;;
60730;SDS011;46580;52.114;11.674;2023-05-07T07:35:02;7.67;;;5.77;;
60730;SDS011;46580;52.114;11.674;2023-05-07T07:37:27;9.30;;;5.73;;
60730;SDS011;46580;52.114;11.674;2023-05-07T07:39:53;10.57;;;6.80;;
60730;SDS011;46580;52.114;11.674;2023-05-07T07:42:18;7.57;;;6.70;;
60730;SDS011;46580;52.114;11.674;2023-05-07T07:44:44;8.10;;;6.47;;
60730;SDS011;46580;52.114;11.674;2023-05-07T07:47:10;9.73;;;6.77;;
60730;SDS011;46580;52.114;11.674;2023-05-07T07:49:35;7.93;;;6.63;;
60730;SDS011;46580;52.114;11.674;2023-05-07T07:52:01;8.23;;;6.77;;
60730;SDS011;46580;52.114;11.674;2023-05-07T07:54:26;8.63;;;6.57;;
60730;SDS011;46580;52.114;11.674;2023-05-07T07:56:51;9.93;;;7.23;;
60730;SDS011;46580;52.114;11.674;2023-05-07T07:59:17;7.10;;;6.07;;
60730;SDS011;46580;52.114;11.674;2023-05-07T08:01:44;8.83;;;6.73;;
60730;SDS011;46580;52.114;11.674;2023-05-07T08:04:09;10.13;;;6.80;;
60730;SDS011;46580;52.114;11.674;2023-05-07T08:06:35;8.70;;;6.83;;
60730;SDS011;46580;52.114;11.674;2023-05-07T08:09:01;7.30;;;6.30;;
60730;SDS011;46580;52.114;11.674;2023-05-07T08:11:27;7.60;;;5.93;;
60730;SDS011;46580;52.114;11.674;2023-05-07T08:13:53;9.47;;;7.03;;
60730;SDS011;46580;52.114;11.674;2023-05-07T08:16:19;9.13;;;6.47;;
60730;SDS011;46580;52.114;11.674;2023-05-07T08:18:47;8.77;;;6.53;;
60730;SDS011;46580;52.114;11.674;2023-05-07T08:21:13;9.73;;;6.47;;
60730;SDS011;46580;52.114;11.674;2023-05-07T08:23:38;10.77;;;7.17;;
60730;SDS011;46580;52.114;11.674;2023-05-07T08:26:03;7.17;;;5.80;;
60730;SDS011;46580;52.114;11.674;2023-05-07T08:28:29;6.87;;;5.50;;
60730;SDS011;46580;52.114;11.674;2023-05-07T08:30:54;9.27;;;6.83;;
60730;SDS011;46580;52.114;11.674;2023-05-07T08:33:21;8.93;;;6.57;;
60730;SDS011;46580;52.114;11.674;2023-05-07T08:35:46;10.60;;;7.50;;
60730;SDS011;46580;52.114;11.674;2023-05-07T08:38:12;9.30;;;6.97;;
60730;SDS011;46580;52.114;11.674;2023-05-07T08:40:38;8.00;;;6.30;;
60730;SDS011;46580;52.114;11.674;2023-05-07T08:43:07;8.67;;;6.40;;
60730;SDS011;46580;52.114;11.674;2023-05-07T08:45:33;9.00;;;7.20;;
60730;SDS011;46580;52.114;11.674;2023-05-07T08:48:00;7.23;;;5.23;;
60730;SDS011;46580;52.114;11.674;2023-05-07T08:50:28;9.30;;;6.00;;
60730;SDS011;46580;52.114;11.674;2023-05-07T08:52:54;7.33;;;5.63;;
60730;SDS011;46580;52.114;11.674;2023-05-07T08:55:21;7.53;;;5.90;;
60730;SDS011;46580;52.114;11.674;2023-05-07T08:57:47;10.33;;;6.20;;
60730;SDS011;46580;52.114;11.674;2023-05-07T09:00:13;8.63;;;5.77;;
60730;SDS011;46580;52.114;11.674;2023-05-07T09:02:38;10.20;;;5.73;;
60730;SDS011;46580;52.114;11.674;2023-05-07T09:05:04;8.23;;;5.67;;
60730;SDS011;46580;52.114;11.674;2023-05-07T09:07:31;7.07;;;5.70;;
60730;SDS011;46580;52.114;11.674;2023-05-07T09:09:56;9.47;;;6.03;;
60730;SDS011;46580;52.114;11.674;2023-05-07T09:12:25;9.67;;;6.47;;
60730;SDS011;46580;52.114;11.674;2023-05-07T09:14:50;6.57;;;5.87;;
60730;SDS011;46580;52.114;11.674;2023-05-07T09:17:16;8.03;;;6.90;;
60730;SDS011;46580;52.114;11.674;2023-05-07T09:19:42;9.80;;;6.87;;
60730;SDS011;46580;52.114;11.674;2023-05-07T09:22:11;9.67;;;6.27;;
60730;SDS011;46580;52.114;11.674;2023-05-07T09:24:37;8.47;;;6.57;;
60730;SDS011;46580;52.114;11.674;2023-05-07T09:27:03;9.20;;;6.60;;
60730;SDS011;46580;52.114;11.674;2023-05-07T09:29:29;7.83;;;5.97;;
60730;SDS011;46580;52.114;11.674;2023-05-07T09:32:00;8.17;;;5.73;;
60730;SDS011;46580;52.114;11.674;2023-05-07T09:34:29;8.43;;;6.30;;
60730;SDS011;46580;52.114;11.674;2023-05-07T09:36:55;10.43;;;6.70;;
60730;SDS011;46580;52.114;11.674;2023-05-07T09:39:21;9.43;;;6.67;;
60730;SDS011;46580;52.114;11.674;2023-05-07T09:41:48;7.60;;;6.37;;
60730;SDS011;46580;52.114;11.674;2023-05-07T09:44:14;8.13;;;5.57;;
60730;SDS011;46580;52.114;11.674;2023-05-07T09:46:42;8.83;;;6.10;;
60730;SDS011;46580;52.114;11.674;2023-05-07T09:49:09;10.67;;;5.87;;
60730;SDS011;46580;52.114;11.674;2023-05-07T09:54:10;8.17;;;5.73;;
60730;SDS011;46580;52.114;11.674;2023-05-07T09:56:35;7.97;;;6.10;;
60730;SDS011;46580;52.114;11.674;2023-05-07T09:59:02;11.00;;;6.13;;
60730;SDS011;46580;52.114;11.674;2023-05-07T10:01:31;8.43;;;5.43;;
60730;SDS011;46580;52.114;11.674;2023-05-07T10:03:57;8.60;;;6.10;;
60730;SDS011;46580;52.114;11.674;2023-05-07T10:06:24;8.70;;;6.23;;
60730;SDS011;46580;52.114;11.674;2023-05-07T10:08:50;6.77;;;5.40;;
60730;SDS011;46580;52.114;11.674;2023-05-07T10:11:16;8.60;;;5.80;;
60730;SDS011;46580;52.114;11.674;2023-05-07T10:13:42;7.43;;;5.63;;
60730;SDS011;46580;52.114;11.674;2023-05-07T10:16:08;11.17;;;6.43;;
60730;SDS011;46580;52.114;11.674;2023-05-07T10:18:34;8.77;;;6.87;;
60730;SDS011;46580;52.114;11.674;2023-05-07T10:21:05;7.17;;;5.70;;
60730;SDS011;46580;52.114;11.674;2023-05-07T10:23:31;8.73;;;6.90;;
60730;SDS011;46580;52.114;11.674;2023-05-07T10:25:57;8.00;;;6.47;;
60730;SDS011;46580;52.114;11.674;2023-05-07T10:28:24;10.30;;;5.97;;
60730;SDS011;46580;52.114;11.674;2023-05-07T10:33:47;6.80;;;5.67;;
60730;SDS011;46580;52.114;11.674;2023-05-07T10:36:16;6.33;;;5.47;;
60730;SDS011;46580;52.114;11.674;2023-05-07T10:38:42;9.27;;;5.03;;
60730;SDS011;46580;52.114;11.674;2023-05-07T10:41:08;8.30;;;5.50;;
60730;SDS011;46580;52.114;11.674;2023-05-07T10:43:42;6.30;;;5.40;;
60730;SDS011;46580;52.114;11.674;2023-05-07T10:46:14;6.70;;;5.50;;
60730;SDS011;46580;52.114;11.674;2023-05-07T10:51:36;5.63;;;4.80;;
60730;SDS011;46580;52.114;11.674;2023-05-07T10:56:37;7.57;;;5.50;;
60730;SDS011;46580;52.114;11.674;2023-05-07T11:01:59;7.03;;;5.63;;
60730;SDS011;46580;52.114;11.674;2023-05-07T11:04:30;8.70;;;5.77;;
60730;SDS011;46580;52.114;11.674;2023-05-07T11:15:11;7.60;;;5.33;;
60730;SDS011;46580;52.114;11.674;2023-05-07T11:17:54;7.57;;;5.13;;
60730;SDS011;46580;52.114;11.674;2023-05-07T11:20:20;5.83;;;4.83;;
60730;SDS011;46580;52.114;11.674;2023-05-07T11:22:46;7.83;;;5.30;;
60730;SDS011;46580;52.114;11.674;2023-05-07T11:25:18;9.40;;;5.00;;
60730;SDS011;46580;52.114;11.674;2023-05-07T11:27:44;7.40;;;5.70;;
60730;SDS011;46580;52.114;11.674;2023-05-07T11:30:10;5.53;;;4.80;;
60730;SDS011;46580;52.114;11.674;2023-05-07T11:32:41;5.60;;;4.43;;
60730;SDS011;46580;52.114;11.674;2023-05-07T11:35:07;4.53;;;3.80;;
60730;SDS011;46580;52.114;11.674;2023-05-07T11:37:33;7.83;;;5.10;;
60730;SDS011;46580;52.114;11.674;2023-05-07T11:40:05;8.00;;;5.53;;
60730;SDS011;46580;52.114;11.674;2023-05-07T11:42:33;7.67;;;5.33;;
60730;SDS011;46580;52.114;11.674;2023-05-07T11:45:01;7.53;;;5.00;;
60730;SDS011;46580;52.114;11.674;2023-05-07T11:47:29;8.10;;;4.33;;
60730;SDS011;46580;52.114;11.674;2023-05-07T11:49:55;5.10;;;4.00;;
60730;SDS011;46580;52.114;11.674;2023-05-07T11:52:22;6.00;;;4.50;;
60730;SDS011;46580;52.114;11.674;2023-05-07T11:54:52;5.33;;;4.73;;
60730;SDS011;46580;52.114;11.674;2023-05-07T11:57:20;6.93;;;4.67;;
60730;SDS011;46580;52.114;11.674;2023-05-07T11:59:45;5.33;;;4.27;;
60730;SDS011;46580;52.114;11.674;2023-05-07T12:02:16;4.37;;;3.63;;
60730;SDS011;46580;52.114;11.674;2023-05-07T12:04:42;6.53;;;4.97;;
60730;SDS011;46580;52.114;11.674;2023-05-07T12:07:14;4.87;;;4.07;;
60730;SDS011;46580;52.114;11.674;2023-05-07T12:09:40;9.30;;;4.87;;
60730;SDS011;46580;52.114;11.674;2023-05-07T12:12:06;7.90;;;4.93;;
60730;SDS011;46580;52.114;11.674;2023-05-07T12:14:32;4.80;;;4.23;;
60730;SDS011;46580;52.114;11.674;2023-05-07T12:16:57;5.40;;;4.53;;
60730;SDS011;46580;52.114;11.674;2023-05-07T12:19:27;4.53;;;3.53;;
60730;SDS011;46580;52.114;11.674;2023-05-07T12:21:53;5.37;;;4.23;;
60730;SDS011;46580;52.114;11.674;2023-05-07T12:24:19;4.97;;;3.90;;
60730;SDS011;46580;52.114;11.674;2023-05-07T12:26:44;5.57;;;4.30;;
60730;SDS011;46580;52.114;11.674;2023-05-07T12:29:10;7.17;;;4.57;;
60730;SDS011;46580;52.114;11.674;2023-05-07T12:31:35;5.40;;;4.07;;
60730;SDS011;46580;52.114;11.674;2023-05-07T12:34:00;5.43;;;4.47;;
60730;SDS011;46580;52.114;11.674;2023-05-07T12:36:27;6.77;;;4.20;;
60730;SDS011;46580;52.114;11.674;2023-05-07T12:39:05;5.70;;;4.10;;
60730;SDS011;46580;52.114;11.674;2023-05-07T12:41:35;4.67;;;3.70;;
60730;SDS011;46580;52.114;11.674;2023-05-07T12:44:03;7.27;;;5.03;;
60730;SDS011;46580;52.114;11.674;2023-05-07T12:46:29;7.40;;;5.27;;
60730;SDS011;46580;52.114;11.674;2023-05-07T12:48:54;5.70;;;4.67;;
60730;SDS011;46580;52.114;11.674;2023-05-07T12:51:20;5.80;;;4.83;;
60730;SDS011;46580;52.114;11.674;2023-05-07T12:53:45;6.23;;;4.57;;
60730;SDS011;46580;52.114;11.674;2023-05-07T12:56:10;4.80;;;4.17;;
60730;SDS011;46580;52.114;11.674;2023-05-07T12:58:36;4.73;;;4.30;;
60730;SDS011;46580;52.114;11.674;2023-05-07T13:01:05;6.57;;;4.30;;
60730;SDS011;46580;52.114;11.674;2023-05-07T13:03:36;5.63;;;4.50;;
60730;SDS011;46580;52.114;11.674;2023-05-07T13:06:03;8.33;;;4.43;;
60730;SDS011;46580;52.114;11.674;2023-05-07T13:08:34;6.13;;;5.20;;
60730;SDS011;46580;52.114;11.674;2023-05-07T13:11:02;6.00;;;4.67;;
60730;SDS011;46580;52.114;11.674;2023-05-07T13:13:29;5.57;;;4.70;;
60730;SDS011;46580;52.114;11.674;2023-05-07T13:15:58;5.77;;;4.30;;
60730;SDS011;46580;52.114;11.674;2023-05-07T13:18:25;5.87;;;4.50;;
60730;SDS011;46580;52.114;11.674;2023-05-07T13:20:51;5.53;;;4.63;;
60730;SDS011;46580;52.114;11.674;2023-05-07T13:23:17;6.40;;;5.13;;
60730;SDS011;46580;52.114;11.674;2023-05-07T13:25:42;7.93;;;6.17;;
60730;SDS011;46580;52.114;11.674;2023-05-07T13:28:07;6.00;;;5.10;;
60730;SDS011;46580;52.114;11.674;2023-05-07T13:30:33;7.53;;;6.30;;
60730;SDS011;46580;52.114;11.674;2023-05-07T13:32:58;5.07;;;4.43;;
60730;SDS011;46580;52.114;11.674;2023-05-07T13:35:24;6.23;;;5.03;;
60730;SDS011;46580;52.114;11.674;2023-05-07T13:37:50;7.73;;;4.93;;
60730;SDS011;46580;52.114;11.674;2023-05-07T13:40:17;6.47;;;5.10;;
60730;SDS011;46580;52.114;11.674;2023-05-07T13:42:42;7.03;;;4.90;;
60730;SDS011;46580;52.114;11.674;2023-05-07T13:45:08;7.57;;;4.97;;
60730;SDS011;46580;52.114;11.674;2023-05-07T13:47:34;4.67;;;3.93;;
60730;SDS011;46580;52.114;11.674;2023-05-07T13:49:59;4.63;;;3.80;;
60730;SDS011;46580;52.114;11.674;2023-05-07T13:52:24;7.47;;;4.50;;
60730;SDS011;46580;52.114;11.674;2023-05-07T13:54:50;4.43;;;3.50;;
60730;SDS011;46580;52.114;11.674;2023-05-07T13:57:17;3.87;;;3.20;;
60730;SDS011;46580;52.114;11.674;2023-05-07T13:59:42;3.83;;;3.43;;
60730;SDS011;46580;52.114;11.674;2023-05-07T14:02:07;4.93;;;3.90;;
60730;SDS011;46580;52.114;11.674;2023-05-07T14:04:34;5.37;;;3.53;;
60730;SDS011;46580;52.114;11.674;2023-05-07T14:07:00;5.47;;;3.97;;
60730;SDS011;46580;52.114;11.674;2023-05-07T14:09:25;4.00;;;3.30;;
60730;SDS011;46580;52.114;11.674;2023-05-07T14:11:50;3.83;;;2.57;;
60730;SDS011;46580;52.114;11.674;2023-05-07T14:14:17;4.47;;;2.83;;
60730;SDS011;46580;52.114;11.674;2023-05-07T14:16:43;5.47;;;3.17;;
60730;SDS011;46580;52.114;11.674;2023-05-07T14:19:08;4.57;;;3.23;;
60730;SDS011;46580;52.114;11.674;2023-05-07T14:21:34;4.53;;;3.40;;
60730;SDS011;46580;52.114;11.674;2023-05-07T14:23:59;3.50;;;3.03;;
60730;SDS011;46580;52.114;11.674;2023-05-07T14:26:25;3.73;;;2.77;;
60730;SDS011;46580;52.114;11.674;2023-05-07T14:28:52;2.80;;;2.60;;
60730;SDS011;46580;52.114;11.674;2023-05-07T14:31:19;4.13;;;3.10;;
60730;SDS011;46580;52.114;11.674;2023-05-07T14:33:45;4.33;;;3.40;;
60730;SDS011;46580;52.114;11.674;2023-05-07T14:36:10;4.53;;;4.13;;
60730;SDS011;46580;52.114;11.674;2023-05-07T14:38:36;4.57;;;3.63;;
60730;SDS011;46580;52.114;11.674;2023-05-07T14:41:01;4.77;;;3.80;;
60730;SDS011;46580;52.114;11.674;2023-05-07T14:43:27;4.17;;;3.23;;
60730;SDS011;46580;52.114;11.674;2023-05-07T14:45:52;4.77;;;3.47;;